KHSV/HSV METAR and TAF weather

Enter ICAO airport designator
Station Type Date Time Source
KHSV METAR 2019/06/27 07:53 UTC NOAA

KHSV 270753Z AUTO 29004KT 10SM CLR 24/20 A3016 RMK AO2 SLP204 T02390200


Station Type Date Time Source
KHSV Decoded METAR 2019/06/27 07:53 UTC NOAA

HUNTSVILLE INTERNATIONAL JONES FIELD, AL, United States (KHSV) 34-39N 086-47W 191M
Jun 27, 2019 - 03:53 AM EDT / 2019.06.27 0753 UTC
Wind: from the WNW (290 degrees) at 5 MPH (4 KT):0
Visibility: 10 mile(s):0
Sky conditions: clear
Temperature: 75.0 F (23.9 C)
Dew Point: 68.0 F (20.0 C)
Relative Humidity: 78%
Pressure (altimeter): 30.16 in. Hg (1021 hPa)
ob: KHSV 270753Z AUTO 29004KT 10SM CLR 24/20 A3016 RMK AO2 SLP204 T02390200
cycle: 8

Station Type Date Time Source
KHSV TAF 2019/06/27 06:30 UTC NOAA

TAF KHSV 270526Z 2706/2806 VRB04KT P6SM VCTS SCT050CB SCT250
TEMPO 2706/2708 5SM -TSRA BR BKN050CB
FM270800 VRB03KT P6SM SCT250
TEMPO 2709/2712 5SM BR
FM271500 27005KT P6SM SCT040 SCT250
FM280000 VRB04KT P6SM BKN250

Example: see airport list